Arcola, Missouri
Current Conditions -  °F | °C
As of 11:52 AM on Thursday 29 Jan 2015 (Local Time) from KSGF Reporting Station
Overcast Overcast  
Wind Chill: 30°   Ceiling: 2000
Heat Index: 39°   Visibility: 10mi
Dew Point: 30°   Wind: 18mph
Humidity: 70%   Direction: 330°NNW
Pressure: 30.3"   Gusts: NA
Location:  37.55°N, 93.88°W
Report Text: KSGF 291752Z 33016KT 10SM OVC020 04/M01 A3030 RMK AO2 PK WND 34026/1742 SLP263 T00391011 10078 20039 51040
Loading
Personal Weather Stations






























Interactive Weather Map New forecast layout! Learn more

10-Day Weather Forecast

Advertisements
Track Severe Weather on mobile